createdAt,value
2019-01-29T02:51:14.910Z,25.57
2019-01-29T02:53:44.974Z,23.10
2019-01-29T02:56:15.089Z,23.00
2019-01-29T02:58:45.147Z,21.80
2019-01-29T03:01:15.218Z,24.57
2019-01-29T03:03:48.512Z,22.87
2019-01-29T03:06:19.169Z,24.77
2019-01-29T03:08:49.186Z,23.63
2019-01-29T03:11:19.876Z,23.50
2019-01-29T03:13:49.967Z,22.47
2019-01-29T03:16:20.710Z,23.30
2019-01-29T03:18:50.809Z,22.20
2019-01-29T03:21:21.375Z,21.50
2019-01-29T03:23:51.495Z,20.73
2019-01-29T03:26:22.265Z,21.53
2019-01-29T03:28:52.330Z,19.23
2019-01-29T03:31:22.883Z,19.67
2019-01-29T03:33:52.930Z,19.57
2019-01-29T03:36:23.839Z,19.10
2019-01-29T03:38:53.888Z,18.07
2019-01-29T03:41:24.029Z,16.40
2019-01-29T03:43:54.051Z,15.97
2019-01-29T03:46:24.377Z,16.43
2019-01-29T03:48:54.563Z,16.70
2019-01-29T03:51:24.738Z,16.03
2019-01-29T03:53:54.785Z,15.57
2019-01-29T03:56:24.963Z,16.50
2019-01-29T03:58:54.998Z,15.60
2019-01-29T04:01:25.751Z,15.20
2019-01-29T04:03:55.914Z,15.13
2019-01-29T04:06:26.067Z,15.87
2019-01-29T04:08:56.187Z,13.77
2019-01-29T04:11:26.385Z,12.40
2019-01-29T04:13:56.447Z,12.27
2019-01-29T04:16:26.526Z,11.13
2019-01-29T04:18:56.591Z,12.13
2019-01-29T04:21:26.892Z,12.33
2019-01-29T04:23:56.959Z,11.70
2019-01-29T04:26:27.000Z,11.13
2019-01-29T04:28:57.063Z,12.23
2019-01-29T04:31:27.249Z,11.07
2019-01-29T04:33:57.311Z,10.43
2019-01-29T04:36:27.464Z,10.10
2019-01-29T04:38:57.521Z,9.10
2019-01-29T04:41:27.845Z,8.07
2019-01-29T04:43:57.904Z,7.53
2019-01-29T04:46:28.008Z,6.37
2019-01-29T04:48:58.050Z,5.97
2019-01-29T04:51:28.145Z,6.27
2019-01-29T04:53:58.197Z,6.43
2019-01-29T04:56:28.304Z,6.17
2019-01-29T04:58:58.361Z,7.07
2019-01-29T05:01:29.540Z,7.00
2019-01-29T05:03:59.643Z,7.03
2019-01-29T05:06:29.670Z,6.97
2019-01-29T05:08:59.713Z,7.00
2019-01-29T05:11:29.761Z,7.03
2019-01-29T05:13:59.848Z,6.87
2019-01-29T05:16:30.074Z,6.60
2019-01-29T05:19:00.119Z,6.43
2019-01-29T05:21:30.256Z,6.60
2019-01-29T05:24:06.628Z,6.50
2019-01-29T05:26:32.468Z,6.40
2019-01-29T05:29:02.621Z,6.50
2019-01-29T05:31:32.986Z,6.43
2019-01-29T05:34:03.128Z,5.83
2019-01-29T05:36:33.202Z,6.03
2019-01-29T05:39:04.866Z,5.70
2019-01-29T05:41:34.926Z,5.30
2019-01-29T05:44:05.329Z,5.57
2019-01-29T05:46:35.707Z,5.70
2019-01-29T05:49:05.970Z,4.90
2019-01-29T05:51:36.036Z,5.20
2019-01-29T05:54:15.836Z,4.87
2019-01-29T05:56:38.344Z,5.80
2019-01-29T05:59:08.371Z,6.10
2019-01-29T06:01:38.619Z,5.57
2019-01-29T06:04:09.209Z,6.37
2019-01-29T06:06:39.626Z,6.87
2019-01-29T06:09:10.054Z,6.27
2019-01-29T06:11:40.095Z,7.13
2019-01-29T06:14:10.161Z,7.40
2019-01-29T06:16:40.218Z,6.83
2019-01-29T06:19:10.522Z,7.53
2019-01-29T06:21:41.485Z,9.00
2019-01-29T06:24:11.537Z,12.97
2019-01-29T06:26:41.628Z,15.67
2019-01-29T06:29:11.692Z,9.33
2019-01-29T06:31:41.872Z,8.80
2019-01-29T06:34:12.071Z,9.33
2019-01-29T06:36:42.861Z,8.93
2019-01-29T06:39:12.947Z,10.80
2019-01-29T06:41:43.021Z,12.10
2019-01-29T06:44:13.126Z,11.03
2019-01-29T06:46:43.153Z,16.03
2019-01-29T06:49:13.206Z,14.10
2019-01-29T06:51:43.663Z,14.27
2019-01-29T06:54:13.746Z,13.40
2019-01-29T06:56:43.805Z,14.07
2019-01-29T06:59:13.846Z,17.40
2019-01-29T07:01:43.917Z,13.53
2019-01-29T07:04:14.066Z,13.37
2019-01-29T07:06:44.645Z,16.43
2019-01-29T07:09:14.703Z,12.10
2019-01-29T07:11:44.777Z,12.77
2019-01-29T07:14:14.850Z,13.63
2019-01-29T07:17:08.287Z,12.73
2019-01-29T07:19:45.475Z,11.60
2019-01-29T07:22:15.541Z,12.93
2019-01-29T07:24:45.593Z,11.63
2019-01-29T07:27:15.726Z,9.83
2019-01-29T07:29:45.753Z,10.90
2019-01-29T07:32:15.967Z,10.50
2019-01-29T07:34:46.049Z,11.50
2019-01-29T07:37:21.885Z,13.17
2019-01-29T07:39:48.096Z,12.53
2019-01-29T07:42:19.476Z,10.90
2019-01-29T07:44:49.560Z,9.67
2019-01-29T07:47:19.793Z,13.10
2019-01-29T07:49:49.939Z,13.13
2019-01-29T07:52:20.257Z,11.13
2019-01-29T07:54:51.505Z,11.00
2019-01-29T07:57:21.810Z,11.10
2019-01-29T07:59:52.081Z,10.30
2019-01-29T08:02:22.449Z,9.50
2019-01-29T08:04:52.646Z,9.20
2019-01-29T08:07:22.940Z,9.00
2019-01-29T08:09:53.250Z,9.47
2019-01-29T08:12:23.539Z,10.30
2019-01-29T08:14:54.048Z,8.57
2019-01-29T08:17:26.451Z,7.37
2019-01-29T08:19:56.716Z,7.23
2019-01-29T08:22:27.156Z,7.03
2019-01-29T08:25:01.743Z,7.43
2019-01-29T08:27:32.756Z,6.77
2019-01-29T08:30:04.496Z,7.70
2019-01-29T08:32:34.929Z,7.63
2019-01-29T08:35:06.039Z,7.47
2019-01-29T08:37:36.772Z,7.60
2019-01-29T08:40:07.611Z,8.07
2019-01-29T08:42:38.621Z,8.87
2019-01-29T08:45:09.666Z,7.77
2019-01-29T08:47:39.825Z,8.13
2019-01-29T08:50:12.974Z,10.07
2019-01-29T08:52:43.031Z,7.13
2019-01-29T08:55:13.377Z,9.07
2019-01-29T08:57:43.872Z,10.30
2019-01-29T09:00:15.907Z,8.67
2019-01-29T09:02:47.851Z,8.50
2019-01-29T09:05:17.935Z,6.67
2019-01-29T09:07:47.995Z,6.07
2019-01-29T09:10:19.730Z,6.30
2019-01-29T09:12:49.852Z,6.40
2019-01-29T09:15:19.978Z,5.97
2019-01-29T09:17:50.064Z,6.20
2019-01-29T09:20:20.546Z,6.27
2019-01-29T09:22:50.659Z,6.87
2019-01-29T09:25:22.646Z,6.33
2019-01-29T09:27:52.629Z,6.40
2019-01-29T09:30:22.844Z,5.53
2019-01-29T09:32:52.931Z,5.47
2019-01-29T09:35:22.982Z,7.47
2019-01-29T09:37:53.048Z,5.50
2019-01-29T09:40:23.134Z,6.30
2019-01-29T09:42:53.481Z,5.50
2019-01-29T09:45:23.672Z,6.17
2019-01-29T09:47:53.724Z,5.47
2019-01-29T09:50:24.091Z,6.13
2019-01-29T09:52:54.318Z,5.77
2019-01-29T09:55:29.522Z,5.83
2019-01-29T09:57:56.245Z,6.17
2019-01-29T10:00:34.626Z,6.13
2019-01-29T10:03:05.151Z,5.77
2019-01-29T10:05:35.644Z,6.10
2019-01-29T10:08:06.803Z,5.73
2019-01-29T10:10:37.872Z,5.83
2019-01-29T10:13:07.992Z,6.10
2019-01-29T10:15:40.846Z,6.20
2019-01-29T10:18:11.009Z,5.70
2019-01-29T10:20:41.146Z,5.50
2019-01-29T10:23:11.306Z,5.90
2019-01-29T10:25:41.409Z,6.03
2019-01-29T10:28:11.735Z,5.97
2019-01-29T10:30:42.698Z,5.73
2019-01-29T10:33:12.828Z,5.83
2019-01-29T10:35:42.994Z,6.20
2019-01-29T10:38:13.032Z,5.90
2019-01-29T10:40:43.132Z,6.63
2019-01-29T10:43:13.407Z,6.50
2019-01-29T10:45:45.352Z,5.80
2019-01-29T10:48:15.409Z,5.60
2019-01-29T10:50:45.482Z,5.07
2019-01-29T10:53:15.591Z,5.30
2019-01-29T10:55:47.375Z,5.60
2019-01-29T10:58:17.435Z,5.20
2019-01-29T11:00:47.503Z,6.13
2019-01-29T11:03:17.565Z,5.83
2019-01-29T11:05:47.748Z,5.77
2019-01-29T11:08:17.840Z,5.80
2019-01-29T11:10:47.934Z,5.37
2019-01-29T11:13:17.991Z,5.07
2019-01-29T11:15:48.462Z,5.90
2019-01-29T11:18:18.533Z,5.13
2019-01-29T11:20:48.595Z,4.57
2019-01-29T11:23:18.674Z,5.33
2019-01-29T11:25:55.769Z,4.87
2019-01-29T11:28:20.571Z,4.97
2019-01-29T11:30:50.642Z,4.60
2019-01-29T11:33:22.057Z,4.83
2019-01-29T11:35:52.123Z,4.97
2019-01-29T11:38:22.180Z,4.70
2019-01-29T11:40:52.235Z,5.37
2019-01-29T11:43:23.207Z,4.53
2019-01-29T11:45:54.873Z,5.83
2019-01-29T11:48:24.953Z,5.30
2019-01-29T11:50:55.027Z,5.40
2019-01-29T11:53:25.074Z,4.93
2019-01-29T11:55:55.177Z,5.07
2019-01-29T11:58:25.212Z,5.13
2019-01-29T12:01:02.284Z,4.77
2019-01-29T12:03:32.309Z,5.03
2019-01-29T12:06:02.396Z,4.53
2019-01-29T12:08:32.427Z,4.70
2019-01-29T12:11:02.519Z,4.90
2019-01-29T12:13:33.047Z,4.83
2019-01-29T12:16:03.127Z,4.57
2019-01-29T12:18:33.171Z,5.17
2019-01-29T12:21:03.243Z,4.97
2019-01-29T12:23:33.273Z,4.60
2019-01-29T12:26:03.401Z,5.27
2019-01-29T12:28:33.832Z,5.93
2019-01-29T12:31:04.410Z,4.70
2019-01-29T12:33:34.632Z,4.80
2019-01-29T12:36:04.778Z,5.20
2019-01-29T12:38:34.848Z,4.30
2019-01-29T12:41:04.987Z,4.23
2019-01-29T12:43:35.229Z,4.30
2019-01-29T12:46:06.821Z,3.50
2019-01-29T12:48:36.995Z,4.13
2019-01-29T12:51:13.010Z,4.43
2019-01-29T12:53:44.041Z,3.77
2019-01-29T12:56:21.370Z,4.30
2019-01-29T12:58:46.590Z,4.40
2019-01-29T13:01:16.639Z,3.80
2019-01-29T13:03:47.157Z,3.80
2019-01-29T13:06:17.201Z,3.57
2019-01-29T13:08:48.043Z,3.83
2019-01-29T13:11:18.213Z,3.63
2019-01-29T13:13:48.335Z,3.17
2019-01-29T13:16:18.383Z,3.50
2019-01-29T13:18:48.736Z,3.53
2019-01-29T13:21:18.877Z,3.60
2019-01-29T13:23:49.047Z,3.37
2019-01-29T13:26:20.242Z,3.83
2019-01-29T13:28:50.341Z,3.30
2019-01-29T13:31:20.448Z,3.67
2019-01-29T13:33:50.546Z,3.90
2019-01-29T13:36:20.632Z,3.60
2019-01-29T13:38:50.725Z,3.50
2019-01-29T13:41:20.819Z,3.63
2019-01-29T13:43:50.871Z,3.50
2019-01-29T13:46:40.339Z,3.07
2019-01-29T13:49:10.798Z,3.60
2019-01-29T13:51:41.713Z,3.43
2019-01-29T13:54:11.786Z,2.90
2019-01-29T13:56:41.898Z,3.30
2019-01-29T13:59:12.020Z,3.20
2019-01-29T14:01:42.355Z,3.40
2019-01-29T14:04:12.654Z,3.50
2019-01-29T14:06:44.247Z,3.30
2019-01-29T14:09:14.306Z,3.03
2019-01-29T14:11:44.353Z,3.27
2019-01-29T14:14:14.442Z,3.70
2019-01-29T14:16:44.507Z,3.00
2019-01-29T14:19:15.389Z,4.37
2019-01-29T14:21:45.492Z,3.63
2019-01-29T14:24:16.051Z,3.53
2019-01-29T14:26:48.292Z,3.63
2019-01-29T14:29:17.920Z,3.60
2019-01-29T14:31:48.138Z,3.33
2019-01-29T14:34:18.219Z,3.73
2019-01-29T14:36:48.428Z,4.20
2019-01-29T14:40:09.218Z,4.00
2019-01-29T14:42:40.117Z,3.47
2019-01-29T14:45:20.827Z,3.50
2019-01-29T14:47:51.149Z,4.17
2019-01-29T14:50:21.542Z,4.20
2019-01-29T14:52:52.136Z,4.00
2019-01-29T14:55:22.306Z,3.50
2019-01-29T14:57:52.989Z,4.00
2019-01-29T15:00:24.532Z,4.30
2019-01-29T15:02:54.659Z,4.40
2019-01-29T15:05:24.771Z,4.30
2019-01-29T15:07:54.926Z,5.50
2019-01-29T15:10:25.093Z,4.97
2019-01-29T15:12:55.287Z,6.10
2019-01-29T15:15:26.177Z,5.63
2019-01-29T15:18:03.415Z,5.97
2019-01-29T15:20:33.466Z,7.07
2019-01-29T15:23:03.756Z,6.03
2019-01-29T15:25:34.126Z,6.20
2019-01-29T15:28:04.357Z,6.20
2019-01-29T15:30:35.482Z,6.40
2019-01-29T15:33:05.758Z,6.97
2019-01-29T15:35:35.846Z,7.30
2019-01-29T15:38:06.271Z,7.70
2019-01-29T15:40:36.399Z,7.13
2019-01-29T15:43:06.601Z,7.40
2019-01-29T15:45:36.851Z,7.80
2019-01-29T15:48:07.052Z,7.53
2019-01-29T15:50:38.035Z,7.97
2019-01-29T15:53:08.196Z,7.80
2019-01-29T15:55:38.271Z,8.23
2019-01-29T15:58:09.218Z,8.00
2019-01-29T16:00:39.991Z,7.40
2019-01-29T16:03:10.119Z,7.60
2019-01-29T16:05:40.627Z,7.03
2019-01-29T16:08:10.958Z,7.80
2019-01-29T16:10:45.092Z,6.73
2019-01-29T16:13:15.137Z,6.93
2019-01-29T16:15:45.405Z,7.40
2019-01-29T16:18:16.025Z,6.53
2019-01-29T16:20:46.279Z,7.40
2019-01-29T16:23:16.319Z,6.20
2019-01-29T16:25:46.383Z,6.87
2019-01-29T16:28:16.443Z,6.63
2019-01-29T16:30:46.706Z,7.03
2019-01-29T16:33:17.019Z,6.90
2019-01-29T16:35:47.083Z,6.97
2019-01-29T16:38:18.222Z,6.00
2019-01-29T16:40:48.499Z,6.70
2019-01-29T16:43:18.585Z,7.27
2019-01-29T16:45:48.802Z,6.30
2019-01-29T16:48:19.308Z,6.77
2019-01-29T16:50:49.347Z,7.47
2019-01-29T16:53:19.424Z,8.77
2019-01-29T16:55:49.620Z,11.67
2019-01-29T16:58:19.718Z,10.70
2019-01-29T17:00:49.771Z,8.60
2019-01-29T17:03:21.451Z,9.10
2019-01-29T17:05:51.473Z,9.47
2019-01-29T17:08:21.562Z,8.53
2019-01-29T17:10:51.651Z,8.43
2019-01-29T17:13:21.714Z,9.43
2019-01-29T17:15:51.871Z,8.63
2019-01-29T17:18:21.930Z,8.37
2019-01-29T17:20:51.998Z,8.53
2019-01-29T17:23:22.107Z,8.87
2019-01-29T17:25:52.408Z,8.40
2019-01-29T17:28:22.519Z,7.60
2019-01-29T17:30:52.570Z,8.10
2019-01-29T17:33:22.751Z,6.87
2019-01-29T17:35:52.820Z,7.40
2019-01-29T17:38:22.883Z,6.77
2019-01-29T17:40:52.950Z,8.00
2019-01-29T17:43:24.777Z,6.83
2019-01-29T17:45:54.840Z,8.93
2019-01-29T17:48:24.915Z,6.93
2019-01-29T17:50:54.979Z,7.50
2019-01-29T17:53:25.016Z,7.40
2019-01-29T17:55:55.084Z,6.97
2019-01-29T17:58:25.161Z,6.40
2019-01-29T18:00:58.770Z,6.90
2019-01-29T18:03:28.826Z,7.57
2019-01-29T18:05:58.891Z,6.77
2019-01-29T18:08:28.952Z,7.17
2019-01-29T18:10:59.000Z,6.97
2019-01-29T18:13:29.160Z,7.97
2019-01-29T18:15:59.375Z,6.70
2019-01-29T18:18:29.573Z,6.97
2019-01-29T18:20:59.767Z,6.77
2019-01-29T18:23:29.896Z,6.90
2019-01-29T18:26:00.095Z,7.17
2019-01-29T18:28:30.147Z,6.23
2019-01-29T18:31:00.345Z,6.63
2019-01-29T18:33:30.402Z,7.33
2019-01-29T18:36:00.475Z,6.23
2019-01-29T18:38:30.606Z,6.57
2019-01-29T18:41:00.685Z,6.50
2019-01-29T18:43:30.759Z,6.97
2019-01-29T18:46:00.838Z,8.43
2019-01-29T18:48:30.924Z,13.67
2019-01-29T18:51:01.077Z,12.80
2019-01-29T18:53:31.165Z,21.37
2019-01-29T18:56:01.218Z,59.03
2019-01-29T18:58:31.311Z,170.83
2019-01-29T19:01:01.457Z,121.73
2019-01-29T19:03:31.564Z,85.80
2019-01-29T19:06:01.760Z,85.53
2019-01-29T19:08:31.855Z,131.77
2019-01-29T19:11:02.014Z,183.93
2019-01-29T19:13:32.225Z,150.60
2019-01-29T19:16:02.261Z,128.53
2019-01-29T19:18:32.458Z,102.23
2019-01-29T19:21:02.613Z,102.07
2019-01-29T19:23:32.714Z,115.90
2019-01-29T19:26:02.947Z,104.83
2019-01-29T19:28:33.203Z,53.70
2019-01-29T19:31:04.931Z,50.80
2019-01-29T19:33:35.239Z,50.50
2019-01-29T19:36:05.401Z,41.57
2019-01-29T19:38:35.588Z,21.20
2019-01-29T19:41:05.654Z,22.53
2019-01-29T19:43:36.014Z,15.63
2019-01-29T19:46:06.226Z,14.17
2019-01-29T19:48:36.584Z,12.40
2019-01-29T19:51:06.767Z,10.37
2019-01-29T19:53:40.038Z,7.97
2019-01-29T19:56:13.094Z,8.10
2019-01-29T19:58:43.474Z,7.53
2019-01-29T20:01:13.852Z,21.63
2019-01-29T20:03:44.404Z,35.47
2019-01-29T20:06:14.588Z,34.03
2019-01-29T20:08:44.697Z,45.47
2019-01-29T20:11:14.933Z,63.63
2019-01-29T20:13:45.012Z,117.87
2019-01-29T20:16:15.668Z,135.10
2019-01-29T20:18:45.914Z,115.17
2019-01-29T20:21:16.071Z,112.07
2019-01-29T20:23:46.173Z,99.63
2019-01-29T20:26:16.293Z,130.30
2019-01-29T20:28:46.519Z,199.10
2019-01-29T20:31:17.133Z,228.53
2019-01-29T20:33:47.959Z,149.03
2019-01-29T20:36:18.104Z,184.90
2019-01-29T20:38:48.311Z,165.27
2019-01-29T20:41:18.407Z,133.23
2019-01-29T20:43:48.652Z,127.77
2019-01-29T20:46:18.709Z,147.30
2019-01-29T20:48:48.786Z,119.27
2019-01-29T20:51:18.901Z,99.37
2019-01-29T20:53:49.031Z,89.00
2019-01-29T20:56:19.124Z,52.07
2019-01-29T20:58:52.712Z,66.57
2019-01-29T21:01:21.073Z,118.83
2019-01-29T21:03:51.179Z,93.73
2019-01-29T21:06:21.262Z,68.63
2019-01-29T21:08:51.372Z,44.33
2019-01-29T21:11:21.511Z,31.80
2019-01-29T21:13:51.779Z,27.60
2019-01-29T21:16:22.047Z,23.97
2019-01-29T21:18:52.236Z,16.87
2019-01-29T21:21:22.883Z,13.97
2019-01-29T21:23:53.040Z,10.30
2019-01-29T21:26:23.210Z,9.23
2019-01-29T21:29:02.466Z,7.57
2019-01-29T21:31:26.946Z,6.70
2019-01-29T21:33:57.249Z,7.50
2019-01-29T21:36:27.308Z,6.80
2019-01-29T21:38:57.365Z,7.33
2019-01-29T21:41:28.000Z,7.30
2019-01-29T21:43:58.307Z,7.27
2019-01-29T21:46:28.431Z,7.07
2019-01-29T21:48:58.485Z,7.07
2019-01-29T21:51:29.189Z,8.47
2019-01-29T21:53:59.259Z,8.00
2019-01-29T21:56:29.303Z,8.33
2019-01-29T21:58:59.360Z,10.23
2019-01-29T22:01:30.134Z,10.63
2019-01-29T22:04:00.215Z,11.27
2019-01-29T22:06:30.296Z,12.57
2019-01-29T22:09:00.450Z,12.47
2019-01-29T22:11:30.957Z,12.83
2019-01-29T22:14:01.012Z,13.70
2019-01-29T22:16:31.072Z,14.60
2019-01-29T22:19:01.193Z,15.03
2019-01-29T22:21:31.256Z,15.03
2019-01-29T22:24:01.299Z,15.03
2019-01-29T22:26:31.343Z,15.30
2019-01-29T22:29:01.400Z,15.47
2019-01-29T22:31:31.512Z,16.03
2019-01-29T22:34:01.545Z,16.50
2019-01-29T22:36:31.623Z,16.93
2019-01-29T22:39:01.660Z,17.57
2019-01-29T22:41:33.582Z,18.20
2019-01-29T22:44:03.681Z,18.33
2019-01-29T22:46:34.018Z,18.10
2019-01-29T22:49:04.259Z,19.37
2019-01-29T22:51:34.312Z,18.40
2019-01-29T22:54:04.842Z,19.93
2019-01-29T22:56:34.982Z,18.90
2019-01-29T22:59:05.355Z,17.40
2019-01-29T23:01:40.473Z,18.60
2019-01-29T23:04:40.768Z,20.53
2019-01-29T23:07:29.608Z,18.43
2019-01-29T23:09:59.708Z,19.03
2019-01-29T23:12:29.825Z,18.70
2019-01-29T23:14:59.998Z,19.23
2019-01-29T23:17:30.053Z,19.80
2019-01-29T23:20:00.230Z,19.57
2019-01-29T23:22:30.459Z,18.77
2019-01-29T23:25:00.524Z,18.87
2019-01-29T23:27:30.644Z,19.07
2019-01-29T23:30:00.708Z,20.67
2019-01-29T23:32:30.756Z,18.83
2019-01-29T23:35:01.123Z,19.70
2019-01-29T23:37:31.167Z,20.40
2019-01-29T23:40:01.229Z,20.40
2019-01-29T23:42:31.271Z,22.60
2019-01-29T23:45:01.384Z,21.50
2019-01-29T23:47:31.423Z,21.87
2019-01-29T23:50:01.471Z,21.47
2019-01-29T23:52:31.653Z,21.73
2019-01-29T23:55:01.703Z,20.90
2019-01-29T23:57:31.778Z,20.47
